sensor_id;sensor_type;location;lat;lon;timestamp;temperature;humidity
26336;DHT22;14047;50.936;4.654;2023-12-20T00:01:41;6.60;99.90
26336;DHT22;14047;50.936;4.654;2023-12-20T00:04:07;6.50;99.90
26336;DHT22;14047;50.936;4.654;2023-12-20T00:06:32;6.60;99.90
26336;DHT22;14047;50.936;4.654;2023-12-20T00:08:58;6.60;99.90
26336;DHT22;14047;50.936;4.654;2023-12-20T00:11:24;6.60;99.90
26336;DHT22;14047;50.936;4.654;2023-12-20T00:13:50;6.50;99.90
26336;DHT22;14047;50.936;4.654;2023-12-20T00:16:16;6.50;99.90
26336;DHT22;14047;50.936;4.654;2023-12-20T00:18:42;6.50;99.90
26336;DHT22;14047;50.936;4.654;2023-12-20T00:21:08;6.50;99.90
26336;DHT22;14047;50.936;4.654;2023-12-20T00:23:34;6.50;99.90
26336;DHT22;14047;50.936;4.654;2023-12-20T00:26:00;6.60;99.90
26336;DHT22;14047;50.936;4.654;2023-12-20T00:28:26;6.60;99.90
26336;DHT22;14047;50.936;4.654;2023-12-20T00:30:52;6.60;99.90
26336;DHT22;14047;50.936;4.654;2023-12-20T00:33:18;6.60;99.90
26336;DHT22;14047;50.936;4.654;2023-12-20T00:35:44;6.60;99.90
26336;DHT22;14047;50.936;4.654;2023-12-20T00:38:10;6.50;99.90
26336;DHT22;14047;50.936;4.654;2023-12-20T00:40:37;6.40;99.90
26336;DHT22;14047;50.936;4.654;2023-12-20T00:43:03;6.50;99.90
26336;DHT22;14047;50.936;4.654;2023-12-20T00:45:29;6.40;99.90
26336;DHT22;14047;50.936;4.654;2023-12-20T00:47:55;6.30;99.90
26336;DHT22;14047;50.936;4.654;2023-12-20T00:50:21;6.30;99.90
26336;DHT22;14047;50.936;4.654;2023-12-20T00:52:48;6.40;99.90
26336;DHT22;14047;50.936;4.654;2023-12-20T00:55:13;6.30;99.90
26336;DHT22;14047;50.936;4.654;2023-12-20T00:57:39;6.30;99.90
26336;DHT22;14047;50.936;4.654;2023-12-20T01:00:06;6.30;99.90
26336;DHT22;14047;50.936;4.654;2023-12-20T01:02:33;6.30;99.90
26336;DHT22;14047;50.936;4.654;2023-12-20T01:04:59;6.30;99.90
26336;DHT22;14047;50.936;4.654;2023-12-20T01:07:25;6.30;99.90
26336;DHT22;14047;50.936;4.654;2023-12-20T01:09:51;6.20;99.90
26336;DHT22;14047;50.936;4.654;2023-12-20T01:12:17;6.20;99.90
26336;DHT22;14047;50.936;4.654;2023-12-20T01:14:42;6.10;99.90
26336;DHT22;14047;50.936;4.654;2023-12-20T01:17:08;6.10;99.90
26336;DHT22;14047;50.936;4.654;2023-12-20T01:19:35;6.20;99.90
26336;DHT22;14047;50.936;4.654;2023-12-20T01:22:01;6.20;99.90
26336;DHT22;14047;50.936;4.654;2023-12-20T01:24:27;6.10;99.90
26336;DHT22;14047;50.936;4.654;2023-12-20T01:26:52;6.20;99.90
26336;DHT22;14047;50.936;4.654;2023-12-20T01:29:18;6.20;99.90
26336;DHT22;14047;50.936;4.654;2023-12-20T01:31:45;6.20;99.90
26336;DHT22;14047;50.936;4.654;2023-12-20T01:34:10;6.10;99.90
26336;DHT22;14047;50.936;4.654;2023-12-20T01:36:36;6.10;99.90
26336;DHT22;14047;50.936;4.654;2023-12-20T01:39:02;6.10;99.90
26336;DHT22;14047;50.936;4.654;2023-12-20T01:41:28;6.10;99.90
26336;DHT22;14047;50.936;4.654;2023-12-20T01:43:54;6.20;99.90
26336;DHT22;14047;50.936;4.654;2023-12-20T01:46:20;6.10;99.90
26336;DHT22;14047;50.936;4.654;2023-12-20T01:48:48;6.20;99.90
26336;DHT22;14047;50.936;4.654;2023-12-20T01:51:14;6.10;99.90
26336;DHT22;14047;50.936;4.654;2023-12-20T01:53:41;6.10;99.90
26336;DHT22;14047;50.936;4.654;2023-12-20T01:56:08;6.10;99.90
26336;DHT22;14047;50.936;4.654;2023-12-20T01:58:39;6.10;99.90
26336;DHT22;14047;50.936;4.654;2023-12-20T02:01:09;6.00;99.90
26336;DHT22;14047;50.936;4.654;2023-12-20T02:03:35;6.00;99.90
26336;DHT22;14047;50.936;4.654;2023-12-20T02:06:03;6.00;99.90
26336;DHT22;14047;50.936;4.654;2023-12-20T02:08:29;5.90;99.90
26336;DHT22;14047;50.936;4.654;2023-12-20T02:10:56;6.00;99.90
26336;DHT22;14047;50.936;4.654;2023-12-20T02:13:22;6.00;99.90
26336;DHT22;14047;50.936;4.654;2023-12-20T02:15:48;6.00;99.90
26336;DHT22;14047;50.936;4.654;2023-12-20T02:18:14;6.00;99.90
26336;DHT22;14047;50.936;4.654;2023-12-20T02:20:42;6.00;99.90
26336;DHT22;14047;50.936;4.654;2023-12-20T02:23:08;6.00;99.90
26336;DHT22;14047;50.936;4.654;2023-12-20T02:25:34;6.00;99.90
26336;DHT22;14047;50.936;4.654;2023-12-20T02:28:00;5.90;99.90
26336;DHT22;14047;50.936;4.654;2023-12-20T02:30:27;5.90;99.90
26336;DHT22;14047;50.936;4.654;2023-12-20T02:32:53;5.90;99.90
26336;DHT22;14047;50.936;4.654;2023-12-20T02:35:19;5.90;99.90
26336;DHT22;14047;50.936;4.654;2023-12-20T02:37:45;5.90;99.90
26336;DHT22;14047;50.936;4.654;2023-12-20T02:40:11;6.00;99.90
26336;DHT22;14047;50.936;4.654;2023-12-20T02:42:37;6.10;99.90
26336;DHT22;14047;50.936;4.654;2023-12-20T02:45:03;6.10;99.90
26336;DHT22;14047;50.936;4.654;2023-12-20T02:47:30;6.20;99.90
26336;DHT22;14047;50.936;4.654;2023-12-20T02:49:56;6.20;99.90
26336;DHT22;14047;50.936;4.654;2023-12-20T02:52:25;6.30;99.90
26336;DHT22;14047;50.936;4.654;2023-12-20T02:54:51;6.30;99.90
26336;DHT22;14047;50.936;4.654;2023-12-20T02:57:17;6.30;99.90
26336;DHT22;14047;50.936;4.654;2023-12-20T02:59:43;6.30;99.90
26336;DHT22;14047;50.936;4.654;2023-12-20T03:02:09;6.30;99.90
26336;DHT22;14047;50.936;4.654;2023-12-20T03:04:35;6.30;99.90
26336;DHT22;14047;50.936;4.654;2023-12-20T03:07:01;6.30;99.90
26336;DHT22;14047;50.936;4.654;2023-12-20T03:09:26;6.30;99.90
26336;DHT22;14047;50.936;4.654;2023-12-20T03:11:53;6.30;99.90
26336;DHT22;14047;50.936;4.654;2023-12-20T03:14:18;6.30;99.90
26336;DHT22;14047;50.936;4.654;2023-12-20T03:16:49;6.30;99.90
26336;DHT22;14047;50.936;4.654;2023-12-20T03:19:17;6.30;99.90
26336;DHT22;14047;50.936;4.654;2023-12-20T03:21:43;6.20;99.90
26336;DHT22;14047;50.936;4.654;2023-12-20T03:24:09;6.20;99.90
26336;DHT22;14047;50.936;4.654;2023-12-20T03:26:35;6.20;99.90
26336;DHT22;14047;50.936;4.654;2023-12-20T03:29:01;6.30;99.90
26336;DHT22;14047;50.936;4.654;2023-12-20T03:31:27;6.40;99.90
26336;DHT22;14047;50.936;4.654;2023-12-20T03:33:52;6.40;99.90
26336;DHT22;14047;50.936;4.654;2023-12-20T03:36:20;6.40;99.90
26336;DHT22;14047;50.936;4.654;2023-12-20T03:38:46;6.40;99.90
26336;DHT22;14047;50.936;4.654;2023-12-20T03:41:13;6.40;99.90
26336;DHT22;14047;50.936;4.654;2023-12-20T03:43:39;6.40;99.90
26336;DHT22;14047;50.936;4.654;2023-12-20T03:46:05;6.40;99.90
26336;DHT22;14047;50.936;4.654;2023-12-20T03:48:31;6.50;99.90
26336;DHT22;14047;50.936;4.654;2023-12-20T03:50:57;6.40;99.90
26336;DHT22;14047;50.936;4.654;2023-12-20T03:53:23;6.40;99.90
26336;DHT22;14047;50.936;4.654;2023-12-20T03:55:49;6.50;99.90
26336;DHT22;14047;50.936;4.654;2023-12-20T03:58:15;6.50;99.90
26336;DHT22;14047;50.936;4.654;2023-12-20T04:00:41;6.50;99.90
26336;DHT22;14047;50.936;4.654;2023-12-20T04:03:07;6.60;99.90
26336;DHT22;14047;50.936;4.654;2023-12-20T04:05:33;6.60;99.90
26336;DHT22;14047;50.936;4.654;2023-12-20T04:08:01;6.70;99.90
26336;DHT22;14047;50.936;4.654;2023-12-20T04:10:27;6.70;99.90
26336;DHT22;14047;50.936;4.654;2023-12-20T04:12:53;6.60;99.90
26336;DHT22;14047;50.936;4.654;2023-12-20T04:15:20;6.60;99.90
26336;DHT22;14047;50.936;4.654;2023-12-20T04:17:46;6.60;99.90
26336;DHT22;14047;50.936;4.654;2023-12-20T04:20:12;6.50;99.90
26336;DHT22;14047;50.936;4.654;2023-12-20T04:22:38;6.40;99.90
26336;DHT22;14047;50.936;4.654;2023-12-20T04:25:04;6.40;99.90
26336;DHT22;14047;50.936;4.654;2023-12-20T04:27:30;6.40;99.90
26336;DHT22;14047;50.936;4.654;2023-12-20T04:29:56;6.40;99.90
26336;DHT22;14047;50.936;4.654;2023-12-20T04:32:22;6.40;99.90
26336;DHT22;14047;50.936;4.654;2023-12-20T04:34:48;6.40;99.90
26336;DHT22;14047;50.936;4.654;2023-12-20T04:37:14;6.40;99.90
26336;DHT22;14047;50.936;4.654;2023-12-20T04:39:40;6.30;99.90
26336;DHT22;14047;50.936;4.654;2023-12-20T04:42:07;6.30;99.90
26336;DHT22;14047;50.936;4.654;2023-12-20T04:44:33;6.30;99.90
26336;DHT22;14047;50.936;4.654;2023-12-20T04:46:59;6.30;99.90
26336;DHT22;14047;50.936;4.654;2023-12-20T04:49:25;6.20;99.90
26336;DHT22;14047;50.936;4.654;2023-12-20T04:51:51;6.30;99.90
26336;DHT22;14047;50.936;4.654;2023-12-20T04:54:17;6.20;99.90
26336;DHT22;14047;50.936;4.654;2023-12-20T04:56:43;6.20;99.90
26336;DHT22;14047;50.936;4.654;2023-12-20T04:59:09;6.20;99.90
26336;DHT22;14047;50.936;4.654;2023-12-20T05:01:35;6.20;99.90
26336;DHT22;14047;50.936;4.654;2023-12-20T05:04:01;6.10;99.90
26336;DHT22;14047;50.936;4.654;2023-12-20T05:06:27;6.20;99.90
26336;DHT22;14047;50.936;4.654;2023-12-20T05:09:08;6.10;99.90
26336;DHT22;14047;50.936;4.654;2023-12-20T05:11:34;6.10;99.90
26336;DHT22;14047;50.936;4.654;2023-12-20T05:14:01;6.10;99.90
26336;DHT22;14047;50.936;4.654;2023-12-20T05:16:27;6.10;99.90
26336;DHT22;14047;50.936;4.654;2023-12-20T05:18:52;6.00;99.90
26336;DHT22;14047;50.936;4.654;2023-12-20T05:21:18;6.00;99.90
26336;DHT22;14047;50.936;4.654;2023-12-20T05:23:45;6.00;99.90
26336;DHT22;14047;50.936;4.654;2023-12-20T05:26:11;6.00;99.90
26336;DHT22;14047;50.936;4.654;2023-12-20T05:28:37;6.00;99.90
26336;DHT22;14047;50.936;4.654;2023-12-20T05:31:03;6.00;99.90
26336;DHT22;14047;50.936;4.654;2023-12-20T05:33:29;5.90;99.90
26336;DHT22;14047;50.936;4.654;2023-12-20T05:35:55;5.90;99.90
26336;DHT22;14047;50.936;4.654;2023-12-20T05:38:21;6.00;99.90
26336;DHT22;14047;50.936;4.654;2023-12-20T05:40:46;5.90;99.90
26336;DHT22;14047;50.936;4.654;2023-12-20T05:43:12;5.90;99.90
26336;DHT22;14047;50.936;4.654;2023-12-20T05:45:38;6.00;99.90
26336;DHT22;14047;50.936;4.654;2023-12-20T05:48:04;6.00;99.90
26336;DHT22;14047;50.936;4.654;2023-12-20T05:50:30;6.00;99.90
26336;DHT22;14047;50.936;4.654;2023-12-20T05:52:56;6.00;99.90
26336;DHT22;14047;50.936;4.654;2023-12-20T05:55:22;5.90;99.90
26336;DHT22;14047;50.936;4.654;2023-12-20T05:57:48;5.90;99.90
26336;DHT22;14047;50.936;4.654;2023-12-20T06:00:14;6.00;99.90
26336;DHT22;14047;50.936;4.654;2023-12-20T06:02:41;5.90;99.90
26336;DHT22;14047;50.936;4.654;2023-12-20T06:05:07;6.00;99.90
26336;DHT22;14047;50.936;4.654;2023-12-20T06:07:33;6.00;99.90
26336;DHT22;14047;50.936;4.654;2023-12-20T06:09:59;6.00;99.90
26336;DHT22;14047;50.936;4.654;2023-12-20T06:12:25;6.00;99.90
26336;DHT22;14047;50.936;4.654;2023-12-20T06:14:53;6.10;99.90
26336;DHT22;14047;50.936;4.654;2023-12-20T06:17:19;6.10;99.90
26336;DHT22;14047;50.936;4.654;2023-12-20T06:19:45;6.10;99.90
26336;DHT22;14047;50.936;4.654;2023-12-20T06:22:14;6.10;99.90
26336;DHT22;14047;50.936;4.654;2023-12-20T06:24:40;6.10;99.90
26336;DHT22;14047;50.936;4.654;2023-12-20T06:27:06;6.10;99.90
26336;DHT22;14047;50.936;4.654;2023-12-20T06:29:32;6.10;99.90
26336;DHT22;14047;50.936;4.654;2023-12-20T06:32:00;6.10;99.90
26336;DHT22;14047;50.936;4.654;2023-12-20T06:34:26;6.10;99.90
26336;DHT22;14047;50.936;4.654;2023-12-20T06:36:52;6.20;99.90
26336;DHT22;14047;50.936;4.654;2023-12-20T06:39:18;6.20;99.90
26336;DHT22;14047;50.936;4.654;2023-12-20T06:41:44;6.10;99.90
26336;DHT22;14047;50.936;4.654;2023-12-20T06:44:09;6.10;99.90
26336;DHT22;14047;50.936;4.654;2023-12-20T06:46:35;6.00;99.90
26336;DHT22;14047;50.936;4.654;2023-12-20T06:49:01;6.00;99.90
26336;DHT22;14047;50.936;4.654;2023-12-20T06:51:27;5.80;99.90
26336;DHT22;14047;50.936;4.654;2023-12-20T06:53:54;5.90;99.90
26336;DHT22;14047;50.936;4.654;2023-12-20T06:56:20;5.90;99.90
26336;DHT22;14047;50.936;4.654;2023-12-20T06:58:46;5.80;99.90
26336;DHT22;14047;50.936;4.654;2023-12-20T07:01:13;5.90;99.90
26336;DHT22;14047;50.936;4.654;2023-12-20T07:03:39;5.80;99.90
26336;DHT22;14047;50.936;4.654;2023-12-20T07:06:06;5.80;99.90
26336;DHT22;14047;50.936;4.654;2023-12-20T07:08:32;5.80;99.90
26336;DHT22;14047;50.936;4.654;2023-12-20T07:10:58;5.80;99.90
26336;DHT22;14047;50.936;4.654;2023-12-20T07:13:24;5.70;99.90
26336;DHT22;14047;50.936;4.654;2023-12-20T07:15:50;5.70;99.90
26336;DHT22;14047;50.936;4.654;2023-12-20T07:18:16;5.70;99.90
26336;DHT22;14047;50.936;4.654;2023-12-20T07:20:42;5.80;99.90
26336;DHT22;14047;50.936;4.654;2023-12-20T07:23:08;5.80;99.90
26336;DHT22;14047;50.936;4.654;2023-12-20T07:25:34;5.80;99.90
26336;DHT22;14047;50.936;4.654;2023-12-20T07:28:00;5.70;99.90
26336;DHT22;14047;50.936;4.654;2023-12-20T07:30:26;5.70;99.90
26336;DHT22;14047;50.936;4.654;2023-12-20T07:32:52;5.70;99.90
26336;DHT22;14047;50.936;4.654;2023-12-20T07:35:18;5.60;99.90
26336;DHT22;14047;50.936;4.654;2023-12-20T07:37:44;5.50;99.90
26336;DHT22;14047;50.936;4.654;2023-12-20T07:40:10;5.50;99.90
26336;DHT22;14047;50.936;4.654;2023-12-20T07:42:36;5.40;99.90
26336;DHT22;14047;50.936;4.654;2023-12-20T07:45:03;5.30;99.90
26336;DHT22;14047;50.936;4.654;2023-12-20T07:47:29;5.30;99.90
26336;DHT22;14047;50.936;4.654;2023-12-20T07:49:55;5.20;99.90
26336;DHT22;14047;50.936;4.654;2023-12-20T07:52:21;5.10;99.90
26336;DHT22;14047;50.936;4.654;2023-12-20T07:54:50;5.20;99.90
26336;DHT22;14047;50.936;4.654;2023-12-20T07:57:15;5.20;99.90
26336;DHT22;14047;50.936;4.654;2023-12-20T07:59:41;5.20;99.90
26336;DHT22;14047;50.936;4.654;2023-12-20T08:02:08;5.20;99.90
26336;DHT22;14047;50.936;4.654;2023-12-20T08:04:34;5.10;99.90
26336;DHT22;14047;50.936;4.654;2023-12-20T08:07:00;5.10;99.90
26336;DHT22;14047;50.936;4.654;2023-12-20T08:09:26;5.10;99.90
26336;DHT22;14047;50.936;4.654;2023-12-20T08:11:52;5.20;99.90
26336;DHT22;14047;50.936;4.654;2023-12-20T08:14:18;5.20;99.90
26336;DHT22;14047;50.936;4.654;2023-12-20T08:16:44;5.30;99.90
26336;DHT22;14047;50.936;4.654;2023-12-20T08:19:10;5.30;99.90
26336;DHT22;14047;50.936;4.654;2023-12-20T08:21:35;5.30;99.90
26336;DHT22;14047;50.936;4.654;2023-12-20T08:24:01;5.40;99.90
26336;DHT22;14047;50.936;4.654;2023-12-20T08:26:27;5.40;99.90
26336;DHT22;14047;50.936;4.654;2023-12-20T08:28:53;5.50;99.90
26336;DHT22;14047;50.936;4.654;2023-12-20T08:31:19;5.50;99.90
26336;DHT22;14047;50.936;4.654;2023-12-20T08:33:48;5.60;99.90
26336;DHT22;14047;50.936;4.654;2023-12-20T08:36:14;5.70;99.90
26336;DHT22;14047;50.936;4.654;2023-12-20T08:38:40;5.80;99.90
26336;DHT22;14047;50.936;4.654;2023-12-20T08:41:06;5.90;99.90
26336;DHT22;14047;50.936;4.654;2023-12-20T08:43:34;6.00;99.90
26336;DHT22;14047;50.936;4.654;2023-12-20T08:46:00;6.00;99.90
26336;DHT22;14047;50.936;4.654;2023-12-20T08:48:26;6.00;99.90
26336;DHT22;14047;50.936;4.654;2023-12-20T08:50:52;6.00;99.90
26336;DHT22;14047;50.936;4.654;2023-12-20T08:53:19;6.10;99.90
26336;DHT22;14047;50.936;4.654;2023-12-20T08:55:45;6.10;99.90
26336;DHT22;14047;50.936;4.654;2023-12-20T08:58:11;6.00;99.90
26336;DHT22;14047;50.936;4.654;2023-12-20T09:00:37;6.00;99.90
26336;DHT22;14047;50.936;4.654;2023-12-20T09:03:04;6.10;99.90
26336;DHT22;14047;50.936;4.654;2023-12-20T09:05:30;6.10;99.90
26336;DHT22;14047;50.936;4.654;2023-12-20T09:07:56;6.10;99.90
26336;DHT22;14047;50.936;4.654;2023-12-20T09:10:22;6.10;99.90
26336;DHT22;14047;50.936;4.654;2023-12-20T09:12:50;6.20;99.90
26336;DHT22;14047;50.936;4.654;2023-12-20T09:15:17;6.20;99.90
26336;DHT22;14047;50.936;4.654;2023-12-20T09:17:43;6.20;99.90
26336;DHT22;14047;50.936;4.654;2023-12-20T09:20:09;6.30;99.90
26336;DHT22;14047;50.936;4.654;2023-12-20T09:22:36;6.30;99.90
26336;DHT22;14047;50.936;4.654;2023-12-20T09:25:04;6.30;99.90
26336;DHT22;14047;50.936;4.654;2023-12-20T09:27:30;6.30;99.90
26336;DHT22;14047;50.936;4.654;2023-12-20T09:29:57;6.30;99.90
26336;DHT22;14047;50.936;4.654;2023-12-20T09:32:22;6.30;99.90
26336;DHT22;14047;50.936;4.654;2023-12-20T09:34:48;6.40;99.90
26336;DHT22;14047;50.936;4.654;2023-12-20T09:37:14;6.50;99.90
26336;DHT22;14047;50.936;4.654;2023-12-20T09:39:40;6.50;99.90
26336;DHT22;14047;50.936;4.654;2023-12-20T09:42:07;6.50;99.90
26336;DHT22;14047;50.936;4.654;2023-12-20T09:44:34;6.50;99.90
26336;DHT22;14047;50.936;4.654;2023-12-20T09:47:03;6.60;99.90
26336;DHT22;14047;50.936;4.654;2023-12-20T09:49:30;6.50;99.90
26336;DHT22;14047;50.936;4.654;2023-12-20T09:51:56;6.60;99.90
26336;DHT22;14047;50.936;4.654;2023-12-20T09:54:23;6.70;99.90
26336;DHT22;14047;50.936;4.654;2023-12-20T09:56:50;6.80;99.90
26336;DHT22;14047;50.936;4.654;2023-12-20T09:59:16;6.90;99.90
26336;DHT22;14047;50.936;4.654;2023-12-20T10:01:43;7.00;99.90
26336;DHT22;14047;50.936;4.654;2023-12-20T10:04:10;7.00;99.90
26336;DHT22;14047;50.936;4.654;2023-12-20T10:06:39;7.00;99.90
26336;DHT22;14047;50.936;4.654;2023-12-20T10:09:05;7.00;99.90
26336;DHT22;14047;50.936;4.654;2023-12-20T10:11:32;7.00;99.90
26336;DHT22;14047;50.936;4.654;2023-12-20T10:14:01;7.00;99.90
26336;DHT22;14047;50.936;4.654;2023-12-20T10:16:27;7.00;99.90
26336;DHT22;14047;50.936;4.654;2023-12-20T10:18:54;7.00;99.90
26336;DHT22;14047;50.936;4.654;2023-12-20T10:21:21;7.10;99.90
26336;DHT22;14047;50.936;4.654;2023-12-20T10:23:48;7.10;99.90
26336;DHT22;14047;50.936;4.654;2023-12-20T10:26:22;7.10;99.90
26336;DHT22;14047;50.936;4.654;2023-12-20T10:28:56;7.20;99.90
26336;DHT22;14047;50.936;4.654;2023-12-20T10:31:32;7.20;99.90
26336;DHT22;14047;50.936;4.654;2023-12-20T10:34:00;7.30;99.90
26336;DHT22;14047;50.936;4.654;2023-12-20T10:36:28;7.20;99.90
26336;DHT22;14047;50.936;4.654;2023-12-20T10:38:55;7.20;99.90
26336;DHT22;14047;50.936;4.654;2023-12-20T10:41:29;7.20;99.90
26336;DHT22;14047;50.936;4.654;2023-12-20T10:44:04;7.30;99.90
26336;DHT22;14047;50.936;4.654;2023-12-20T10:46:30;7.30;99.90
26336;DHT22;14047;50.936;4.654;2023-12-20T10:48:58;7.40;99.90
26336;DHT22;14047;50.936;4.654;2023-12-20T10:51:25;7.30;99.90
26336;DHT22;14047;50.936;4.654;2023-12-20T10:53:53;7.40;99.90
26336;DHT22;14047;50.936;4.654;2023-12-20T10:56:19;7.40;99.90
26336;DHT22;14047;50.936;4.654;2023-12-20T10:58:47;7.50;99.90
26336;DHT22;14047;50.936;4.654;2023-12-20T11:01:14;7.50;99.90
26336;DHT22;14047;50.936;4.654;2023-12-20T11:03:48;7.60;99.90
26336;DHT22;14047;50.936;4.654;2023-12-20T11:08:51;7.60;99.90
26336;DHT22;14047;50.936;4.654;2023-12-20T11:14:08;7.70;99.90
26336;DHT22;14047;50.936;4.654;2023-12-20T11:16:39;7.80;99.90
26336;DHT22;14047;50.936;4.654;2023-12-20T11:19:07;7.80;99.90
26336;DHT22;14047;50.936;4.654;2023-12-20T11:21:33;7.90;99.90
26336;DHT22;14047;50.936;4.654;2023-12-20T11:23:59;8.00;99.90
26336;DHT22;14047;50.936;4.654;2023-12-20T11:26:29;7.90;99.90
26336;DHT22;14047;50.936;4.654;2023-12-20T11:29:30;7.90;99.90
26336;DHT22;14047;50.936;4.654;2023-12-20T11:31:59;7.90;99.90
26336;DHT22;14047;50.936;4.654;2023-12-20T11:34:28;7.90;99.90
26336;DHT22;14047;50.936;4.654;2023-12-20T11:37:02;7.90;99.90
26336;DHT22;14047;50.936;4.654;2023-12-20T11:39:28;8.00;99.90
26336;DHT22;14047;50.936;4.654;2023-12-20T11:41:56;8.10;99.90
26336;DHT22;14047;50.936;4.654;2023-12-20T11:44:25;8.10;99.90
26336;DHT22;14047;50.936;4.654;2023-12-20T11:46:52;8.00;99.90
26336;DHT22;14047;50.936;4.654;2023-12-20T11:49:23;8.00;99.90
26336;DHT22;14047;50.936;4.654;2023-12-20T11:51:49;8.00;99.90
26336;DHT22;14047;50.936;4.654;2023-12-20T11:54:15;8.10;99.90
26336;DHT22;14047;50.936;4.654;2023-12-20T11:56:41;8.00;99.90
26336;DHT22;14047;50.936;4.654;2023-12-20T11:59:08;8.00;99.90
26336;DHT22;14047;50.936;4.654;2023-12-20T12:01:34;8.00;99.90
26336;DHT22;14047;50.936;4.654;2023-12-20T12:04:07;8.00;99.90
26336;DHT22;14047;50.936;4.654;2023-12-20T12:06:33;8.00;99.90
26336;DHT22;14047;50.936;4.654;2023-12-20T12:08:59;8.00;99.90
26336;DHT22;14047;50.936;4.654;2023-12-20T12:11:25;8.00;99.90
26336;DHT22;14047;50.936;4.654;2023-12-20T12:13:51;8.00;99.90
26336;DHT22;14047;50.936;4.654;2023-12-20T12:16:19;8.00;99.90
26336;DHT22;14047;50.936;4.654;2023-12-20T12:18:45;8.00;99.90
26336;DHT22;14047;50.936;4.654;2023-12-20T12:21:19;8.00;99.90
26336;DHT22;14047;50.936;4.654;2023-12-20T12:23:46;8.10;99.90
26336;DHT22;14047;50.936;4.654;2023-12-20T12:26:12;8.10;99.90
26336;DHT22;14047;50.936;4.654;2023-12-20T12:28:40;8.30;99.90
26336;DHT22;14047;50.936;4.654;2023-12-20T12:31:07;8.30;99.90
26336;DHT22;14047;50.936;4.654;2023-12-20T12:33:34;8.30;99.90
26336;DHT22;14047;50.936;4.654;2023-12-20T12:36:03;8.30;99.90
26336;DHT22;14047;50.936;4.654;2023-12-20T12:38:32;8.30;99.90
26336;DHT22;14047;50.936;4.654;2023-12-20T12:41:00;8.40;99.90
26336;DHT22;14047;50.936;4.654;2023-12-20T12:43:26;8.40;99.90
26336;DHT22;14047;50.936;4.654;2023-12-20T12:45:52;8.50;99.90
26336;DHT22;14047;50.936;4.654;2023-12-20T12:48:18;8.60;99.90
26336;DHT22;14047;50.936;4.654;2023-12-20T12:50:46;8.60;99.90
26336;DHT22;14047;50.936;4.654;2023-12-20T12:53:12;8.60;99.90
26336;DHT22;14047;50.936;4.654;2023-12-20T12:55:38;8.60;99.90
26336;DHT22;14047;50.936;4.654;2023-12-20T12:58:04;8.60;99.90
26336;DHT22;14047;50.936;4.654;2023-12-20T13:00:30;8.60;99.90
26336;DHT22;14047;50.936;4.654;2023-12-20T13:02:56;8.70;99.90
26336;DHT22;14047;50.936;4.654;2023-12-20T13:05:22;8.60;99.90
26336;DHT22;14047;50.936;4.654;2023-12-20T13:07:48;8.60;99.90
26336;DHT22;14047;50.936;4.654;2023-12-20T13:10:14;8.70;99.90
26336;DHT22;14047;50.936;4.654;2023-12-20T13:12:43;8.70;99.90
26336;DHT22;14047;50.936;4.654;2023-12-20T13:15:09;8.70;99.90
26336;DHT22;14047;50.936;4.654;2023-12-20T13:17:37;8.70;99.90
26336;DHT22;14047;50.936;4.654;2023-12-20T13:20:04;8.70;99.90
26336;DHT22;14047;50.936;4.654;2023-12-20T13:22:31;8.70;99.90
26336;DHT22;14047;50.936;4.654;2023-12-20T13:24:57;8.80;99.90
26336;DHT22;14047;50.936;4.654;2023-12-20T13:27:23;8.70;99.90
26336;DHT22;14047;50.936;4.654;2023-12-20T13:29:49;8.80;99.90
26336;DHT22;14047;50.936;4.654;2023-12-20T13:32:15;8.80;99.90
26336;DHT22;14047;50.936;4.654;2023-12-20T13:34:41;8.90;99.90
26336;DHT22;14047;50.936;4.654;2023-12-20T13:37:07;8.80;99.90
26336;DHT22;14047;50.936;4.654;2023-12-20T13:39:33;8.70;99.90
26336;DHT22;14047;50.936;4.654;2023-12-20T13:41:59;8.70;99.90
26336;DHT22;14047;50.936;4.654;2023-12-20T13:44:25;8.80;99.90
26336;DHT22;14047;50.936;4.654;2023-12-20T13:46:51;8.70;99.90
26336;DHT22;14047;50.936;4.654;2023-12-20T13:49:16;8.80;99.90
26336;DHT22;14047;50.936;4.654;2023-12-20T13:51:42;8.80;99.90
26336;DHT22;14047;50.936;4.654;2023-12-20T13:54:08;8.80;99.90
26336;DHT22;14047;50.936;4.654;2023-12-20T13:56:36;8.90;99.90
26336;DHT22;14047;50.936;4.654;2023-12-20T13:59:02;8.90;99.90
26336;DHT22;14047;50.936;4.654;2023-12-20T14:01:28;8.90;99.90
26336;DHT22;14047;50.936;4.654;2023-12-20T14:03:57;8.90;99.90
26336;DHT22;14047;50.936;4.654;2023-12-20T14:06:22;8.90;99.90
26336;DHT22;14047;50.936;4.654;2023-12-20T14:08:48;8.90;99.90
26336;DHT22;14047;50.936;4.654;2023-12-20T14:11:14;8.90;99.90
26336;DHT22;14047;50.936;4.654;2023-12-20T14:13:41;8.90;99.90
26336;DHT22;14047;50.936;4.654;2023-12-20T14:16:07;8.90;99.90
26336;DHT22;14047;50.936;4.654;2023-12-20T14:18:33;9.00;99.90
26336;DHT22;14047;50.936;4.654;2023-12-20T14:20:59;8.90;99.90
26336;DHT22;14047;50.936;4.654;2023-12-20T14:23:25;8.90;99.90
26336;DHT22;14047;50.936;4.654;2023-12-20T14:25:51;8.90;99.90
26336;DHT22;14047;50.936;4.654;2023-12-20T14:28:16;8.90;99.90
26336;DHT22;14047;50.936;4.654;2023-12-20T14:30:43;9.10;99.90
26336;DHT22;14047;50.936;4.654;2023-12-20T14:33:09;9.10;99.90
26336;DHT22;14047;50.936;4.654;2023-12-20T14:35:35;9.20;99.90
26336;DHT22;14047;50.936;4.654;2023-12-20T14:38:01;9.10;99.90
26336;DHT22;14047;50.936;4.654;2023-12-20T14:40:27;9.10;99.90
26336;DHT22;14047;50.936;4.654;2023-12-20T14:42:52;9.10;99.90
26336;DHT22;14047;50.936;4.654;2023-12-20T14:45:19;9.20;99.90
26336;DHT22;14047;50.936;4.654;2023-12-20T14:47:45;9.10;99.90
26336;DHT22;14047;50.936;4.654;2023-12-20T14:50:13;9.10;99.90
26336;DHT22;14047;50.936;4.654;2023-12-20T14:52:44;9.00;99.90
26336;DHT22;14047;50.936;4.654;2023-12-20T14:55:11;9.10;99.90
26336;DHT22;14047;50.936;4.654;2023-12-20T14:57:37;9.10;99.90
26336;DHT22;14047;50.936;4.654;2023-12-20T15:00:03;9.10;99.90
26336;DHT22;14047;50.936;4.654;2023-12-20T15:02:30;9.10;99.90
26336;DHT22;14047;50.936;4.654;2023-12-20T15:04:56;9.00;99.90
26336;DHT22;14047;50.936;4.654;2023-12-20T15:07:22;9.10;99.90
26336;DHT22;14047;50.936;4.654;2023-12-20T15:09:48;9.10;99.90
26336;DHT22;14047;50.936;4.654;2023-12-20T15:12:14;9.10;99.90
26336;DHT22;14047;50.936;4.654;2023-12-20T15:14:40;9.10;99.90
26336;DHT22;14047;50.936;4.654;2023-12-20T15:17:06;9.10;99.90
26336;DHT22;14047;50.936;4.654;2023-12-20T15:19:32;9.10;99.90
26336;DHT22;14047;50.936;4.654;2023-12-20T15:21:58;9.10;99.90
26336;DHT22;14047;50.936;4.654;2023-12-20T15:24:25;9.10;99.90
26336;DHT22;14047;50.936;4.654;2023-12-20T15:27:04;9.10;99.90
26336;DHT22;14047;50.936;4.654;2023-12-20T15:29:30;9.20;99.90
26336;DHT22;14047;50.936;4.654;2023-12-20T15:31:56;9.20;99.90
26336;DHT22;14047;50.936;4.654;2023-12-20T15:34:22;9.20;99.90
26336;DHT22;14047;50.936;4.654;2023-12-20T15:36:48;9.30;99.90
26336;DHT22;14047;50.936;4.654;2023-12-20T15:39:14;9.30;99.90
26336;DHT22;14047;50.936;4.654;2023-12-20T15:41:40;9.30;99.90
26336;DHT22;14047;50.936;4.654;2023-12-20T15:44:06;9.30;99.90
26336;DHT22;14047;50.936;4.654;2023-12-20T15:46:32;9.30;99.90